Time;durP1;ratioP1;P1;durP2;ratioP2;P2;SDS_P1;SDS_P2;PMS_P1;PMS_P2;Temp;Humidity;BMP_temperature;BMP_pressure;BME280_temperature;BME280_humidity;BME280_pressure;Samples;Min_cycle;Max_cycle;Signal;HPM_P1;HPM_P2
2021/07/27 00:02:17;;;;;;;35.60;19.50;;;;;;;;;;5094791;28;20032;-77
2021/07/27 00:04:43;;;;;;;37.08;18.48;;;;;;;;;;5095126;28;20082;-76
2021/07/27 00:07:08;;;;;;;34.88;19.67;;;;;;;;;;5095064;28;20039;-76
2021/07/27 00:09:33;;;;;;;32.58;18.45;;;;;;;;;;5094926;28;20054;-76
2021/07/27 00:11:59;;;;;;;34.90;20.75;;;;;;;;;;5093092;28;20020;-76
2021/07/27 00:14:24;;;;;;;32.63;17.90;;;;;;;;;;5094869;28;20016;-76
2021/07/27 00:16:49;;;;;;;150.07;30.67;;;;;;;;;;5093551;28;20048;-76
2021/07/27 00:19:14;;;;;;;494.00;68.65;;;;;;;;;;5094714;28;20030;-76
2021/07/27 00:21:40;;;;;;;1252.45;573.95;;;;;;;;;;5094270;28;20104;-77
2021/07/27 00:24:05;;;;;;;30.88;17.55;;;;;;;;;;5094618;28;20050;-77
2021/07/27 00:26:30;;;;;;;38.25;19.23;;;;;;;;;;5094602;28;20077;-77
2021/07/27 00:28:56;;;;;;;33.28;19.02;;;;;;;;;;5094354;28;20076;-76
2021/07/27 00:31:21;;;;;;;36.65;19.17;;;;;;;;;;5093251;28;20036;-76
2021/07/27 00:33:47;;;;;;;34.42;18.55;;;;;;;;;;5094636;28;20035;-76
2021/07/27 00:36:12;;;;;;;36.05;20.45;;;;;;;;;;5094531;28;20035;-77
2021/07/27 00:38:37;;;;;;;39.72;19.75;;;;;;;;;;5094389;28;20040;-76
2021/07/27 00:41:03;;;;;;;37.80;19.50;;;;;;;;;;5094449;28;20459;-76
2021/07/27 00:43:28;;;;;;;35.75;20.65;;;;;;;;;;5094388;28;20361;-76
2021/07/27 00:45:53;;;;;;;34.13;19.77;;;;;;;;;;5094293;28;20081;-76
2021/07/27 00:48:19;;;;;;;37.90;21.45;;;;;;;;;;5094338;28;20055;-76
2021/07/27 00:50:44;;;;;;;39.72;20.10;;;;;;;;;;5094315;28;20069;-77
2021/07/27 00:53:09;;;;;;;47.35;26.02;;;;;;;;;;5093885;28;20110;-76
2021/07/27 00:55:35;;;;;;;43.53;25.77;;;;;;;;;;5094066;28;20030;-77
2021/07/27 00:58:01;;;;;;;45.33;25.40;;;;;;;;;;5094359;28;20464;-76
2021/07/27 01:00:26;;;;;;;44.45;27.13;;;;;;;;;;5093941;28;20036;-79
2021/07/27 01:02:52;;;;;;;40.05;25.08;;;;;;;;;;5094390;28;20123;-79
2021/07/27 01:05:17;;;;;;;40.42;25.27;;;;;;;;;;5094035;28;20020;-79
2021/07/27 01:07:43;;;;;;;42.40;26.25;;;;;;;;;;5094039;28;20040;-78
2021/07/27 01:10:09;;;;;;;37.45;22.98;;;;;;;;;;5094049;28;20027;-78
2021/07/27 01:12:35;;;;;;;35.47;23.25;;;;;;;;;;5093925;28;20456;-79
2021/07/27 01:15:01;;;;;;;39.13;22.00;;;;;;;;;;5093862;28;20030;-76
2021/07/27 01:17:26;;;;;;;41.90;24.23;;;;;;;;;;5093714;28;20039;-75
2021/07/27 01:43:50;;;;;;;42.55;23.75;;;;;;;;;;5093584;28;20434;-75
2021/07/27 01:46:16;;;;;;;42.40;22.88;;;;;;;;;;5093861;28;20111;-76
2021/07/27 01:48:42;;;;;;;35.42;18.50;;;;;;;;;;5093571;28;20376;-76
2021/07/27 01:51:08;;;;;;;39.28;18.90;;;;;;;;;;5093497;28;20039;-75
2021/07/27 01:53:52;;;;;;;39.40;23.77;;;;;;;;;;5093492;28;20363;-76
2021/07/27 01:56:18;;;;;;;38.10;23.55;;;;;;;;;;5093775;28;20032;-78
2021/07/27 01:58:45;;;;;;;42.97;25.02;;;;;;;;;;5093339;28;20036;-78
2021/07/27 02:01:10;;;;;;;46.13;24.58;;;;;;;;;;5093352;28;20341;-78
2021/07/27 02:03:36;;;;;;;44.05;25.15;;;;;;;;;;5093325;28;20023;-78
2021/07/27 02:06:01;;;;;;;50.15;24.63;;;;;;;;;;5093444;28;20028;-78
2021/07/27 02:08:26;;;;;;;43.25;26.23;;;;;;;;;;5093269;28;20023;-75
2021/07/27 02:10:59;;;;;;;48.63;25.95;;;;;;;;;;5093491;28;20051;-76
2021/07/27 02:13:29;;;;;;;44.72;24.42;;;;;;;;;;5093411;28;20074;-76
2021/07/27 02:15:55;;;;;;;42.95;24.10;;;;;;;;;;5093037;28;20428;-75
2021/07/27 02:18:20;;;;;;;47.22;24.73;;;;;;;;;;5093233;28;20128;-76
2021/07/27 02:20:46;;;;;;;47.45;24.42;;;;;;;;;;5093417;28;20048;-76
2021/07/27 02:23:11;;;;;;;44.22;19.80;;;;;;;;;;5093266;28;20436;-76
2021/07/27 02:25:36;;;;;;;41.00;20.42;;;;;;;;;;5091931;28;20130;-76
2021/07/27 02:28:02;;;;;;;1027.57;148.30;;;;;;;;;;5093142;28;20479;-76
2021/07/27 02:30:29;;;;;;;51.45;27.55;;;;;;;;;;5093232;28;20027;-78
2021/07/27 02:32:54;;;;;;;146.43;31.40;;;;;;;;;;5093116;28;20032;-78
2021/07/27 02:35:21;;;;;;;1077.00;521.00;;;;;;;;;;5093260;28;20019;-78
2021/07/27 02:37:46;;;;;;;1999.90;999.90;;;;;;;;;;5096678;28;20032;-78
2021/07/27 02:40:11;;;;;;;53.45;29.30;;;;;;;;;;5096867;28;20460;-78
2021/07/27 02:42:37;;;;;;;130.77;77.20;;;;;;;;;;5096339;28;20495;-78
2021/07/27 02:45:03;;;;;;;12.30;6.95;;;;;;;;;;5097060;28;20023;-76
2021/07/27 02:47:28;;;;;;;19.92;11.15;;;;;;;;;;5096224;28;20464;-76
2021/07/27 02:49:53;;;;;;;33.08;17.30;;;;;;;;;;5096690;28;20020;-76
2021/07/27 02:52:19;;;;;;;34.38;19.08;;;;;;;;;;5096495;28;20078;-76
2021/07/27 02:54:44;;;;;;;35.45;19.42;;;;;;;;;;5096499;28;20042;-75
2021/07/27 02:57:09;;;;;;;33.10;19.65;;;;;;;;;;5096133;28;20050;-75
2021/07/27 02:59:35;;;;;;;34.65;20.70;;;;;;;;;;5096008;28;20031;-75
2021/07/27 03:02:00;;;;;;;37.70;20.33;;;;;;;;;;5096395;28;20024;-76
2021/07/27 03:04:25;;;;;;;33.97;19.88;;;;;;;;;;5094856;28;20058;-76
2021/07/27 03:06:54;;;;;;;35.30;20.48;;;;;;;;;;5096059;28;20076;-76
2021/07/27 03:09:29;;;;;;;40.00;20.67;;;;;;;;;;5096130;28;20032;-76
2021/07/27 03:11:54;;;;;;;349.83;102.40;;;;;;;;;;5095896;28;20421;-76
2021/07/27 03:14:19;;;;;;;52.33;21.90;;;;;;;;;;5096000;28;20110;-76
2021/07/27 03:16:45;;;;;;;51.72;21.67;;;;;;;;;;5095868;28;20032;-76
2021/07/27 03:19:10;;;;;;;194.20;90.57;;;;;;;;;;5096099;28;20100;-76
2021/07/27 03:21:35;;;;;;;1999.90;999.90;;;;;;;;;;5094702;28;20050;-76
2021/07/27 03:24:01;;;;;;;1999.90;999.90;;;;;;;;;;5095890;28;20058;-76
2021/07/27 03:26:26;;;;;;;1999.90;999.90;;;;;;;;;;5095806;28;20361;-76
2021/07/27 03:28:52;;;;;;;1019.78;515.45;;;;;;;;;;5095896;28;20032;-76
2021/07/27 03:31:17;;;;;;;225.95;102.30;;;;;;;;;;5095684;28;20427;-78
2021/07/27 03:33:43;;;;;;;1999.90;999.90;;;;;;;;;;5095613;28;20365;-78
2021/07/27 03:36:08;;;;;;;1999.90;999.90;;;;;;;;;;5095566;28;20365;-78
2021/07/27 03:38:36;;;;;;;36.97;17.60;;;;;;;;;;5095511;28;20031;-78
2021/07/27 03:41:06;;;;;;;35.85;17.13;;;;;;;;;;5095666;28;20081;-78
2021/07/27 03:43:32;;;;;;;31.60;16.25;;;;;;;;;;5095433;28;20039;-78
2021/07/27 03:45:57;;;;;;;37.28;15.73;;;;;;;;;;5095525;28;20102;-76
2021/07/27 03:48:22;;;;;;;31.30;15.40;;;;;;;;;;5095304;28;20345;-76
2021/07/27 03:50:48;;;;;;;32.72;16.10;;;;;;;;;;5095681;28;20036;-76
2021/07/27 03:53:16;;;;;;;27.70;13.23;;;;;;;;;;5095435;28;20035;-76
2021/07/27 03:55:42;;;;;;;29.15;12.95;;;;;;;;;;5095329;28;20028;-76
2021/07/27 03:58:07;;;;;;;30.70;13.15;;;;;;;;;;5095334;28;20062;-76
2021/07/27 04:00:33;;;;;;;28.77;13.52;;;;;;;;;;5094861;28;20095;-78
2021/07/27 04:03:01;;;;;;;26.83;13.57;;;;;;;;;;5095274;28;20372;-78
2021/07/27 04:05:27;;;;;;;31.92;15.57;;;;;;;;;;5094980;28;20038;-78
2021/07/27 04:07:52;;;;;;;32.72;14.65;;;;;;;;;;5095053;28;20107;-78
2021/07/27 04:10:17;;;;;;;35.15;14.93;;;;;;;;;;5095012;28;20448;-78
2021/07/27 04:12:43;;;;;;;29.65;14.07;;;;;;;;;;5094937;28;20028;-78
2021/07/27 04:15:08;;;;;;;31.38;15.05;;;;;;;;;;5095167;28;20016;-75
2021/07/27 04:17:34;;;;;;;35.75;14.93;;;;;;;;;;5095097;28;20036;-76
2021/07/27 04:19:59;;;;;;;30.40;14.27;;;;;;;;;;5094607;28;20052;-76
2021/07/27 04:22:24;;;;;;;35.08;17.58;;;;;;;;;;5094749;28;20475;-76
2021/07/27 04:24:50;;;;;;;34.63;17.02;;;;;;;;;;5094790;28;20077;-76
2021/07/27 04:27:16;;;;;;;39.90;17.38;;;;;;;;;;5094686;28;20116;-76
2021/07/27 04:29:43;;;;;;;30.38;17.70;;;;;;;;;;5094678;28;20452;-76
2021/07/27 04:32:08;;;;;;;35.92;16.42;;;;;;;;;;5094675;28;20024;-76
2021/07/27 04:34:34;;;;;;;21.90;10.70;;;;;;;;;;5094531;28;20161;-76
2021/07/27 04:36:59;;;;;;;17.88;8.77;;;;;;;;;;5094389;28;20038;-76
2021/07/27 04:39:30;;;;;;;1999.90;999.90;;;;;;;;;;5094184;28;20069;-76
2021/07/27 04:41:55;;;;;;;1999.90;999.90;;;;;;;;;;5094418;28;20055;-76
2021/07/27 04:44:21;;;;;;;48.83;19.02;;;;;;;;;;5094408;28;20402;-76
2021/07/27 04:46:47;;;;;;;44.13;16.27;;;;;;;;;;5094320;28;20027;-76
2021/07/27 04:49:16;;;;;;;37.20;15.75;;;;;;;;;;5094286;28;20031;-76
2021/07/27 04:51:41;;;;;;;39.45;17.20;;;;;;;;;;5093967;28;20498;-76
2021/07/27 04:54:12;;;;;;;49.88;22.00;;;;;;;;;;5094258;28;20020;-76
2021/07/27 04:56:37;;;;;;;29.23;14.63;;;;;;;;;;5093714;28;20388;-78
2021/07/27 04:59:03;;;;;;;45.88;17.40;;;;;;;;;;5093665;28;20042;-78
2021/07/27 05:01:28;;;;;;;44.05;18.67;;;;;;;;;;5094098;28;20024;-78
2021/07/27 05:03:56;;;;;;;32.60;14.38;;;;;;;;;;5093996;28;20036;-78
2021/07/27 05:06:22;;;;;;;53.08;21.20;;;;;;;;;;5093937;28;20035;-78
2021/07/27 05:08:47;;;;;;;1999.90;999.90;;;;;;;;;;5092950;28;20024;-78
2021/07/27 05:11:13;;;;;;;318.58;117.78;;;;;;;;;;5093977;28;20039;-78
2021/07/27 05:13:38;;;;;;;39.65;16.33;;;;;;;;;;5093833;28;20020;-76
2021/07/27 05:16:06;;;;;;;37.97;15.55;;;;;;;;;;5093910;28;20032;-76
2021/07/27 05:18:31;;;;;;;47.53;16.23;;;;;;;;;;5093876;28;20486;-76
2021/07/27 05:20:57;;;;;;;43.00;16.67;;;;;;;;;;5093984;28;20044;-76
2021/07/27 05:23:27;;;;;;;103.50;20.38;;;;;;;;;;5093845;28;20052;-76
2021/07/27 05:25:52;;;;;;;270.98;34.40;;;;;;;;;;5093745;28;20059;-76
2021/07/27 05:28:17;;;;;;;37.13;15.75;;;;;;;;;;5093641;28;20048;-76
2021/07/27 05:30:43;;;;;;;78.88;19.40;;;;;;;;;;5093768;28;20028;-76
2021/07/27 05:33:08;;;;;;;81.53;25.17;;;;;;;;;;5093753;28;20032;-76
2021/07/27 05:35:33;;;;;;;37.38;16.67;;;;;;;;;;5093539;28;20034;-76
2021/07/27 05:37:59;;;;;;;173.48;26.02;;;;;;;;;;5093667;28;20061;-76
2021/07/27 05:40:24;;;;;;;44.35;18.05;;;;;;;;;;5093280;28;20119;-76
2021/07/27 05:42:49;;;;;;;1999.90;999.90;;;;;;;;;;5093661;28;20055;-76
2021/07/27 05:45:15;;;;;;;49.05;43.92;;;;;;;;;;5093696;28;20082;-76
2021/07/27 05:47:40;;;;;;;34.83;28.70;;;;;;;;;;5093427;28;20070;-76
2021/07/27 05:50:09;;;;;;;28.85;20.25;;;;;;;;;;5093354;28;20043;-76
2021/07/27 05:52:34;;;;;;;24.15;16.33;;;;;;;;;;5093444;28;20027;-76
2021/07/27 05:54:59;;;;;;;20.70;15.23;;;;;;;;;;5093580;28;20156;-76
2021/07/27 05:57:25;;;;;;;21.90;14.68;;;;;;;;;;5093348;28;20158;-76
2021/07/27 05:59:50;;;;;;;20.23;13.43;;;;;;;;;;5093252;28;20023;-76
2021/07/27 06:02:19;;;;;;;20.73;11.98;;;;;;;;;;5093430;28;20036;-76
2021/07/27 06:04:45;;;;;;;34.70;32.00;;;;;;;;;;5093308;28;20027;-76
2021/07/27 06:07:10;;;;;;;35.05;31.42;;;;;;;;;;5092208;28;20024;-76
2021/07/27 06:09:35;;;;;;;21.92;19.88;;;;;;;;;;5092037;28;20032;-77
2021/07/27 06:12:01;;;;;;;14.13;10.82;;;;;;;;;;5096363;28;20483;-76
2021/07/27 06:14:26;;;;;;;10.15;6.65;;;;;;;;;;5097362;28;20103;-76
2021/07/27 06:16:51;;;;;;;11.05;8.05;;;;;;;;;;5097119;28;20047;-76
2021/07/27 06:19:16;;;;;;;11.88;7.50;;;;;;;;;;5096853;28;20125;-76
2021/07/27 06:21:42;;;;;;;10.45;6.93;;;;;;;;;;5097219;28;20040;-76
2021/07/27 06:24:08;;;;;;;8.32;6.10;;;;;;;;;;5097011;28;20036;-76
2021/07/27 06:26:34;;;;;;;10.80;7.82;;;;;;;;;;5096660;28;20032;-76
2021/07/27 06:29:01;;;;;;;102.63;43.65;;;;;;;;;;5096584;28;20012;-77
2021/07/27 06:31:26;;;;;;;664.30;84.03;;;;;;;;;;5096803;28;20032;-77
2021/07/27 06:33:52;;;;;;;1999.90;999.90;;;;;;;;;;5096871;28;20031;-77
2021/07/27 06:36:17;;;;;;;149.02;137.27;;;;;;;;;;5096523;28;20030;-77
2021/07/27 06:38:42;;;;;;;169.57;159.48;;;;;;;;;;5096780;28;20376;-78
2021/07/27 06:41:09;;;;;;;56.17;14.85;;;;;;;;;;5096825;28;20020;-77
2021/07/27 06:43:35;;;;;;;612.30;67.50;;;;;;;;;;5096648;28;20016;-77
2021/07/27 06:46:00;;;;;;;150.95;128.07;;;;;;;;;;5096646;28;20028;-77
2021/07/27 06:48:26;;;;;;;102.30;94.47;;;;;;;;;;5096545;28;20020;-77
2021/07/27 06:50:51;;;;;;;11.00;5.55;;;;;;;;;;5096335;28;20016;-78
2021/07/27 06:53:17;;;;;;;441.80;65.53;;;;;;;;;;5096295;28;20036;-77
2021/07/27 06:55:42;;;;;;;1999.90;999.90;;;;;;;;;;5096416;28;20027;-78
2021/07/27 06:58:08;;;;;;;1999.90;999.90;;;;;;;;;;5096428;28;20511;-77
2021/07/27 07:00:33;;;;;;;1999.90;999.90;;;;;;;;;;5096384;28;20035;-77
2021/07/27 07:02:58;;;;;;;1999.90;999.90;;;;;;;;;;5096312;28;20024;-78
2021/07/27 07:05:23;;;;;;;1999.90;999.90;;;;;;;;;;5096201;28;20375;-77
2021/07/27 07:07:49;;;;;;;21.42;14.80;;;;;;;;;;5096267;28;20077;-77
2021/07/27 07:10:14;;;;;;;483.83;457.88;;;;;;;;;;5096069;28;20077;-77
2021/07/27 07:12:39;;;;;;;18.63;9.50;;;;;;;;;;5096222;28;20110;-77
2021/07/27 07:15:05;;;;;;;26.40;10.18;;;;;;;;;;5094801;28;20036;-77
2021/07/27 07:17:31;;;;;;;555.40;259.25;;;;;;;;;;5095904;28;20036;-77
2021/07/27 07:19:56;;;;;;;1999.90;999.90;;;;;;;;;;5095615;28;20446;-77
2021/07/27 07:22:21;;;;;;;1999.90;999.90;;;;;;;;;;5095105;28;20028;-77
2021/07/27 07:24:47;;;;;;;1999.90;999.90;;;;;;;;;;5095816;28;20029;-77
2021/07/27 07:27:13;;;;;;;1999.90;999.90;;;;;;;;;;5092000;28;20063;-77
2021/07/27 07:29:41;;;;;;;1999.90;999.90;;;;;;;;;;5090748;28;20361;-79
2021/07/27 07:32:07;;;;;;;1999.90;999.90;;;;;;;;;;5092076;28;20024;-79
2021/07/27 07:34:32;;;;;;;1999.90;999.90;;;;;;;;;;5092052;28;20027;-77
2021/07/27 07:36:58;;;;;;;1999.90;999.90;;;;;;;;;;5092988;28;20539;-77
2021/07/27 07:39:23;;;;;;;1999.90;999.90;;;;;;;;;;5092165;28;20035;-77
2021/07/27 07:41:48;;;;;;;179.32;21.92;;;;;;;;;;5092125;28;20024;-77
2021/07/27 07:44:14;;;;;;;16.20;8.48;;;;;;;;;;5092353;28;20051;-77
2021/07/27 07:46:39;;;;;;;13.90;7.80;;;;;;;;;;5092284;28;20016;-77
2021/07/27 07:49:06;;;;;;;13.27;8.02;;;;;;;;;;5091161;28;20069;-77
2021/07/27 07:51:31;;;;;;;13.45;7.88;;;;;;;;;;5091770;28;20028;-77
2021/07/27 07:53:57;;;;;;;14.00;7.75;;;;;;;;;;5091735;28;20024;-77
2021/07/27 07:56:22;;;;;;;16.63;7.95;;;;;;;;;;5091854;28;20445;-77
2021/07/27 07:58:48;;;;;;;13.05;7.93;;;;;;;;;;5091673;28;20089;-78
2021/07/27 08:01:14;;;;;;;12.50;7.28;;;;;;;;;;5091470;28;20038;-77
2021/07/27 08:03:39;;;;;;;15.43;7.22;;;;;;;;;;5092180;28;20456;-78
2021/07/27 08:06:04;;;;;;;15.10;7.88;;;;;;;;;;5091027;28;20028;-77
2021/07/27 08:08:29;;;;;;;678.53;201.27;;;;;;;;;;5091355;28;20405;-77
2021/07/27 08:10:55;;;;;;;9.80;7.22;;;;;;;;;;5091754;28;20024;-78
2021/07/27 08:13:20;;;;;;;11.35;6.70;;;;;;;;;;5091508;28;20038;-78
2021/07/27 08:15:48;;;;;;;13.15;6.97;;;;;;;;;;5092035;28;20055;-78
2021/07/27 08:18:13;;;;;;;12.10;6.72;;;;;;;;;;5091092;28;20032;-78
2021/07/27 08:20:38;;;;;;;8.18;5.28;;;;;;;;;;5091000;28;20102;-78
2021/07/27 08:23:04;;;;;;;161.77;64.82;;;;;;;;;;5091599;28;20035;-78
2021/07/27 08:25:30;;;;;;;726.92;151.10;;;;;;;;;;5091026;28;20457;-78
2021/07/27 08:27:55;;;;;;;56.58;34.40;;;;;;;;;;5091852;28;20047;-78
2021/07/27 08:30:22;;;;;;;13.23;9.45;;;;;;;;;;5089638;28;20507;-78
2021/07/27 08:32:48;;;;;;;334.77;169.23;;;;;;;;;;5090656;28;20028;-78
2021/07/27 08:35:14;;;;;;;505.45;84.60;;;;;;;;;;5090167;28;20516;-78
2021/07/27 08:37:39;;;;;;;1999.90;999.90;;;;;;;;;;5090870;28;20034;-79
2021/07/27 08:40:05;;;;;;;46.40;43.70;;;;;;;;;;5090950;28;20020;-79
2021/07/27 08:42:31;;;;;;;8.27;2.65;;;;;;;;;;5075602;28;20433;-78
2021/07/27 08:45:00;;;;;;;6.93;4.72;;;;;;;;;;5070935;28;20035;-78
2021/07/27 08:47:26;;;;;;;7.90;3.25;;;;;;;;;;5067636;28;20024;-79
2021/07/27 08:49:51;;;;;;;6.82;2.67;;;;;;;;;;5069997;28;20038;-78
2021/07/27 08:52:16;;;;;;;9.02;3.45;;;;;;;;;;5070017;28;20025;-78
2021/07/27 08:54:45;;;;;;;5.78;3.70;;;;;;;;;;5070064;28;20485;-79
2021/07/27 08:57:14;;;;;;;8.55;3.67;;;;;;;;;;5070144;28;20040;-78
2021/07/27 08:59:39;;;;;;;54.88;21.85;;;;;;;;;;5070026;28;20016;-78
2021/07/27 09:02:05;;;;;;;80.40;54.00;;;;;;;;;;5070292;28;20077;-78
2021/07/27 09:04:30;;;;;;;1999.90;999.90;;;;;;;;;;5069113;28;20404;-78
2021/07/27 09:06:59;;;;;;;1999.90;999.90;;;;;;;;;;5069703;28;20016;-78
2021/07/27 09:09:29;;;;;;;84.03;54.30;;;;;;;;;;5069032;28;20400;-78
2021/07/27 09:11:55;;;;;;;7.68;3.08;;;;;;;;;;5078057;28;20044;-78
2021/07/27 09:14:21;;;;;;;165.25;136.90;;;;;;;;;;5089007;28;20031;-79
2021/07/27 09:16:47;;;;;;;6.43;4.80;;;;;;;;;;5090451;28;20032;-78
2021/07/27 09:19:13;;;;;;;9.75;5.65;;;;;;;;;;5089423;28;20945;-78
2021/07/27 09:21:42;;;;;;;9.70;5.55;;;;;;;;;;5089927;28;20044;-78
2021/07/27 09:24:07;;;;;;;40.65;33.92;;;;;;;;;;5088531;28;20028;-78
2021/07/27 09:26:32;;;;;;;6.72;4.45;;;;;;;;;;5089614;28;20089;-78
2021/07/27 09:29:02;;;;;;;10.23;4.70;;;;;;;;;;5088580;28;20073;-78
2021/07/27 09:31:27;;;;;;;13.40;5.03;;;;;;;;;;5090417;28;20123;-78
2021/07/27 09:33:53;;;;;;;8.80;5.25;;;;;;;;;;5089395;28;20531;-78
2021/07/27 09:36:27;;;;;;;6.80;3.80;;;;;;;;;;5089454;28;20020;-78
2021/07/27 09:38:59;;;;;;;5.65;3.83;;;;;;;;;;5089586;28;20242;-78
2021/07/27 09:41:31;;;;;;;16.83;3.92;;;;;;;;;;5089105;28;20063;-78
2021/07/27 09:43:57;;;;;;;10.23;3.83;;;;;;;;;;5089327;28;20337;-78
2021/07/27 09:46:23;;;;;;;7.53;3.80;;;;;;;;;;5093233;28;20032;-78
2021/07/27 09:48:48;;;;;;;5.53;3.40;;;;;;;;;;5092505;28;20045;-78
2021/07/27 09:51:14;;;;;;;8.70;3.38;;;;;;;;;;5093257;28;20024;-78
2021/07/27 09:53:40;;;;;;;6.13;3.30;;;;;;;;;;5093854;28;20059;-78
2021/07/27 09:56:07;;;;;;;5.07;3.58;;;;;;;;;;5094058;28;20024;-78
2021/07/27 09:58:32;;;;;;;6.15;3.67;;;;;;;;;;5093596;28;20023;-79
2021/07/27 10:01:13;;;;;;;4.40;2.88;;;;;;;;;;5093284;28;20559;-78
2021/07/27 10:03:58;;;;;;;6.40;3.75;;;;;;;;;;5093443;28;20028;-78
2021/07/27 10:06:24;;;;;;;10.35;4.57;;;;;;;;;;5093470;28;20055;-79
2021/07/27 10:09:07;;;;;;;7.32;4.35;;;;;;;;;;5092750;28;20025;-78
2021/07/27 10:11:35;;;;;;;7.78;4.80;;;;;;;;;;5093946;28;20038;-79
2021/07/27 10:14:05;;;;;;;5.03;3.58;;;;;;;;;;5093520;28;20024;-78
2021/07/27 10:16:30;;;;;;;17.98;16.90;;;;;;;;;;5093750;28;20043;-78
2021/07/27 10:18:55;;;;;;;623.75;362.02;;;;;;;;;;5093052;28;20024;-79
2021/07/27 10:21:25;;;;;;;1999.90;999.90;;;;;;;;;;5093903;28;20044;-78
2021/07/27 10:23:53;;;;;;;25.40;23.42;;;;;;;;;;5094019;28;20104;-79
2021/07/27 10:26:28;;;;;;;10.77;4.53;;;;;;;;;;5093842;28;20020;-78
2021/07/27 10:28:54;;;;;;;9.02;4.80;;;;;;;;;;5093966;28;20032;-78
2021/07/27 10:31:29;;;;;;;8.90;4.63;;;;;;;;;;5093590;28;20043;-78
2021/07/27 10:33:54;;;;;;;8.57;3.92;;;;;;;;;;5093679;28;20046;-78
2021/07/27 10:36:32;;;;;;;6.82;3.33;;;;;;;;;;5093265;28;20865;-79
2021/07/27 10:39:15;;;;;;;195.57;115.93;;;;;;;;;;5094004;28;20056;-78
2021/07/27 10:41:51;;;;;;;1999.90;999.90;;;;;;;;;;5093482;28;20039;-78
2021/07/27 10:44:20;;;;;;;1999.90;999.90;;;;;;;;;;5092932;28;20028;-79
2021/07/27 10:46:47;;;;;;;1999.90;999.90;;;;;;;;;;5092215;28;20471;-78
2021/07/27 10:49:21;;;;;;;1999.90;999.90;;;;;;;;;;5092641;28;20024;-78
2021/07/27 10:51:47;;;;;;;53.70;32.17;;;;;;;;;;5093593;28;20106;-78
2021/07/27 10:54:16;;;;;;;5.85;5.25;;;;;;;;;;5092965;28;20127;-78
2021/07/27 10:56:55;;;;;;;8.18;6.22;;;;;;;;;;5092376;28;20036;-78
2021/07/27 10:59:20;;;;;;;14.00;5.47;;;;;;;;;;5093086;28;20380;-78
2021/07/27 11:01:46;;;;;;;9.40;5.20;;;;;;;;;;5093447;28;20032;-78
2021/07/27 11:04:11;;;;;;;8.60;5.18;;;;;;;;;;5093502;28;20384;-78
2021/07/27 11:06:37;;;;;;;162.95;109.55;;;;;;;;;;5092948;28;20115;-78
2021/07/27 11:09:03;;;;;;;10.30;4.25;;;;;;;;;;5093332;28;20115;-78
2021/07/27 11:11:29;;;;;;;7.15;4.35;;;;;;;;;;5093157;28;20107;-78
2021/07/27 11:13:54;;;;;;;10.40;6.05;;;;;;;;;;5092584;28;20107;-78
2021/07/27 11:16:20;;;;;;;8.90;5.32;;;;;;;;;;5093229;28;20040;-78
2021/07/27 11:18:45;;;;;;;12.35;5.78;;;;;;;;;;5092342;28;20041;-78
2021/07/27 11:21:11;;;;;;;9.55;5.53;;;;;;;;;;5092502;28;20048;-79
2021/07/27 11:23:36;;;;;;;10.52;5.63;;;;;;;;;;5091951;28;20365;-78
2021/07/27 11:26:02;;;;;;;8.40;4.95;;;;;;;;;;5094461;28;20023;-78
2021/07/27 11:28:37;;;;;;;12.35;6.57;;;;;;;;;;5093999;28;20024;-78
2021/07/27 11:31:03;;;;;;;9.98;6.05;;;;;;;;;;5091530;28;20067;-78
2021/07/27 11:33:29;;;;;;;8.27;5.07;;;;;;;;;;5091928;28;20080;-78
2021/07/27 11:35:55;;;;;;;9.55;5.28;;;;;;;;;;5093907;28;20032;-79
2021/07/27 11:38:23;;;;;;;10.95;6.20;;;;;;;;;;5091329;28;20483;-79
2021/07/27 11:40:49;;;;;;;10.75;5.97;;;;;;;;;;5091659;28;20024;-78
2021/07/27 11:43:14;;;;;;;7.70;4.82;;;;;;;;;;5092890;28;20399;-78
2021/07/27 11:45:41;;;;;;;7.35;4.35;;;;;;;;;;5096017;28;20018;-79
2021/07/27 11:48:07;;;;;;;7.00;4.18;;;;;;;;;;5094117;28;20017;-78
2021/07/27 11:50:33;;;;;;;6.00;3.85;;;;;;;;;;5094051;28;20432;-78
2021/07/27 11:52:59;;;;;;;9.68;4.13;;;;;;;;;;5105968;28;20026;-79
2021/07/27 11:55:30;;;;;;;7.50;6.03;;;;;;;;;;5094976;28;20111;-78
2021/07/27 11:57:55;;;;;;;7.70;4.72;;;;;;;;;;5105896;28;20491;-78
2021/07/27 12:00:21;;;;;;;6.20;3.08;;;;;;;;;;5100648;28;20051;-78
2021/07/27 12:02:46;;;;;;;6.55;3.35;;;;;;;;;;5098100;28;20085;-79
2021/07/27 12:05:12;;;;;;;8.95;3.65;;;;;;;;;;5108045;28;20506;-78
2021/07/27 12:07:40;;;;;;;7.15;3.85;;;;;;;;;;5094587;28;20063;-78
2021/07/27 12:10:06;;;;;;;6.15;3.47;;;;;;;;;;5101955;28;20024;-78
2021/07/27 12:12:32;;;;;;;5.95;3.85;;;;;;;;;;5090978;28;20028;-78
2021/07/27 12:14:57;;;;;;;5.95;3.45;;;;;;;;;;5091293;28;20016;-78
2021/07/27 12:17:22;;;;;;;4.68;3.10;;;;;;;;;;5091132;28;20392;-78
2021/07/27 12:19:48;;;;;;;7.05;3.08;;;;;;;;;;5091781;28;20048;-78
2021/07/27 12:22:13;;;;;;;4.22;2.53;;;;;;;;;;5091271;28;20965;-79
2021/07/27 12:24:38;;;;;;;6.53;2.58;;;;;;;;;;5090512;28;20020;-78
2021/07/27 12:27:03;;;;;;;5.75;1.80;;;;;;;;;;5090845;28;20179;-78
2021/07/27 12:29:29;;;;;;;4.60;1.77;;;;;;;;;;5090843;28;20017;-78
2021/07/27 12:31:54;;;;;;;5.25;2.28;;;;;;;;;;5091500;28;20126;-78
2021/07/27 12:34:19;;;;;;;3.88;2.50;;;;;;;;;;5090807;28;20118;-78
2021/07/27 12:36:45;;;;;;;5.10;2.53;;;;;;;;;;5089885;28;20035;-78
2021/07/27 12:39:10;;;;;;;5.93;2.50;;;;;;;;;;5090318;28;20589;-78
2021/07/27 12:41:35;;;;;;;5.47;2.63;;;;;;;;;;5090649;28;20030;-78
2021/07/27 12:44:00;;;;;;;4.35;2.15;;;;;;;;;;5091097;28;20016;-78
2021/07/27 12:46:26;;;;;;;5.95;2.10;;;;;;;;;;5090710;28;20044;-78
2021/07/27 12:48:52;;;;;;;4.75;2.33;;;;;;;;;;5090645;28;20024;-78
2021/07/27 12:51:20;;;;;;;7.85;2.83;;;;;;;;;;5090704;28;20102;-78
2021/07/27 12:53:45;;;;;;;5.22;2.63;;;;;;;;;;5090106;28;20496;-78
2021/07/27 12:56:14;;;;;;;5.22;2.15;;;;;;;;;;5090493;28;20032;-78
2021/07/27 12:58:40;;;;;;;6.53;2.78;;;;;;;;;;5090512;28;20110;-78
2021/07/27 13:01:05;;;;;;;3.85;2.33;;;;;;;;;;5090863;28;20099;-78
2021/07/27 13:03:30;;;;;;;6.10;2.08;;;;;;;;;;5090479;28;20054;-78
2021/07/27 13:05:55;;;;;;;5.90;2.38;;;;;;;;;;5090696;28;20418;-78
2021/07/27 13:08:21;;;;;;;5.90;2.75;;;;;;;;;;5090443;28;20024;-78
2021/07/27 13:10:49;;;;;;;7.43;2.10;;;;;;;;;;5090588;28;20104;-78
2021/07/27 13:13:15;;;;;;;4.68;2.38;;;;;;;;;;5090094;28;20049;-78
2021/07/27 13:15:40;;;;;;;4.32;2.20;;;;;;;;;;5090435;28;20540;-75
2021/07/27 13:18:06;;;;;;;4.15;2.42;;;;;;;;;;5090127;28;20044;-78
2021/07/27 13:20:31;;;;;;;5.28;2.15;;;;;;;;;;5089879;28;20491;-78
2021/07/27 13:22:56;;;;;;;6.50;2.55;;;;;;;;;;5089152;28;20514;-78
2021/07/27 13:25:21;;;;;;;6.95;2.20;;;;;;;;;;5091011;28;20468;-78
2021/07/27 13:27:47;;;;;;;7.90;3.30;;;;;;;;;;5089894;28;20031;-78
2021/07/27 13:30:12;;;;;;;7.70;3.30;;;;;;;;;;5090903;28;20030;-78
2021/07/27 13:32:37;;;;;;;7.80;2.78;;;;;;;;;;5090599;28;20035;-78
2021/07/27 13:35:03;;;;;;;6.03;3.00;;;;;;;;;;5087639;28;20013;-78
2021/07/27 13:37:28;;;;;;;5.97;3.03;;;;;;;;;;5088191;28;20391;-78
2021/07/27 13:39:54;;;;;;;5.60;3.65;;;;;;;;;;5090315;28;20106;-78
2021/07/27 13:42:19;;;;;;;7.00;3.53;;;;;;;;;;5089208;28;20021;-78
2021/07/27 13:44:44;;;;;;;7.38;2.97;;;;;;;;;;5089795;28;20070;-78
2021/07/27 13:47:09;;;;;;;10.55;3.63;;;;;;;;;;5089351;28;20042;-78
2021/07/27 13:49:35;;;;;;;6.30;3.17;;;;;;;;;;5088683;28;20464;-78
2021/07/27 13:52:00;;;;;;;6.13;2.55;;;;;;;;;;5090742;28;20029;-78
2021/07/27 13:54:25;;;;;;;5.32;2.63;;;;;;;;;;5089732;28;20032;-78
2021/07/27 13:56:51;;;;;;;8.23;3.67;;;;;;;;;;5088519;28;20426;-78
2021/07/27 13:59:16;;;;;;;7.68;2.40;;;;;;;;;;5087926;28;20027;-78
2021/07/27 14:01:41;;;;;;;5.75;3.03;;;;;;;;;;5089482;28;20043;-78
2021/07/27 14:04:06;;;;;;;3.85;2.42;;;;;;;;;;5090357;28;20020;-78
2021/07/27 14:06:32;;;;;;;8.30;2.08;;;;;;;;;;5089704;28;20032;-78
2021/07/27 14:08:57;;;;;;;3.60;1.83;;;;;;;;;;5088649;28;20376;-78
2021/07/27 14:11:22;;;;;;;5.05;2.10;;;;;;;;;;5089789;28;20044;-78
2021/07/27 14:13:48;;;;;;;4.40;2.28;;;;;;;;;;5090005;28;20030;-78
2021/07/27 14:16:13;;;;;;;5.15;2.35;;;;;;;;;;5089878;28;20388;-78
2021/07/27 14:18:39;;;;;;;6.97;2.47;;;;;;;;;;5088894;28;20024;-78
2021/07/27 14:21:04;;;;;;;4.93;2.47;;;;;;;;;;5089736;28;20055;-78
2021/07/27 14:23:29;;;;;;;7.03;3.00;;;;;;;;;;5089574;28;20032;-78
2021/07/27 14:25:54;;;;;;;5.63;2.63;;;;;;;;;;5089881;28;20023;-78
2021/07/27 14:28:20;;;;;;;4.32;2.05;;;;;;;;;;5089547;28;20030;-78
2021/07/27 14:30:45;;;;;;;5.22;2.80;;;;;;;;;;5089988;28;20101;-78
2021/07/27 14:33:11;;;;;;;4.40;2.40;;;;;;;;;;5093017;28;20026;-78
2021/07/27 14:35:36;;;;;;;6.20;2.40;;;;;;;;;;5093419;28;20668;-78
2021/07/27 14:38:02;;;;;;;4.57;2.58;;;;;;;;;;5093479;28;20121;-78
2021/07/27 14:40:28;;;;;;;5.97;2.30;;;;;;;;;;5094340;28;20024;-78